createdAt,value
2019-05-17T00:01:50.523Z,65.30
2019-05-17T00:04:21.785Z,65.30
2019-05-17T00:06:53.191Z,65.50
2019-05-17T00:09:26.608Z,65.60
2019-05-17T00:11:57.430Z,65.70
2019-05-17T00:14:28.530Z,65.80
2019-05-17T00:16:59.749Z,65.70
2019-05-17T00:19:31.914Z,65.70
2019-05-17T00:22:03.911Z,65.40
2019-05-17T00:24:37.018Z,65.10
2019-05-17T00:27:08.028Z,64.90
2019-05-17T00:29:39.142Z,64.80
2019-05-17T00:32:10.459Z,64.40
2019-05-17T00:34:41.318Z,64.20
2019-05-17T00:37:12.411Z,63.90
2019-05-17T00:39:43.447Z,63.50
2019-05-17T00:42:16.857Z,63.40
2019-05-17T00:44:51.306Z,63.60
2019-05-17T00:47:22.608Z,63.90
2019-05-17T00:49:54.018Z,64.20
2019-05-17T00:52:27.215Z,64.50
2019-05-17T00:54:57.958Z,64.30
2019-05-17T00:57:29.103Z,64.30
2019-05-17T01:00:00.150Z,64.30
2019-05-17T01:02:31.450Z,64.10
2019-05-17T01:05:02.585Z,63.90
2019-05-17T01:07:34.148Z,63.90
2019-05-17T01:10:06.970Z,63.80
2019-05-17T01:12:38.119Z,63.60
2019-05-17T01:15:11.111Z,63.60
2019-05-17T01:17:42.303Z,63.50
2019-05-17T01:20:13.896Z,63.40
2019-05-17T01:22:47.209Z,63.40
2019-05-17T01:25:17.769Z,63.40
2019-05-17T01:27:48.827Z,63.40
2019-05-17T01:30:20.142Z,63.40
2019-05-17T01:32:51.072Z,63.30
2019-05-17T01:35:22.135Z,63.30
2019-05-17T01:37:53.034Z,63.30
2019-05-17T01:40:26.391Z,63.40
2019-05-17T01:42:58.190Z,63.50
2019-05-17T01:45:29.215Z,63.60
2019-05-17T01:48:00.132Z,64.30
2019-05-17T01:50:31.403Z,63.40
2019-05-17T01:53:02.862Z,63.40
2019-05-17T01:55:33.770Z,63.50
2019-05-17T01:58:07.006Z,63.50
2019-05-17T02:00:37.826Z,63.40
2019-05-17T02:03:10.000Z,63.40
2019-05-17T02:05:41.074Z,64.10
2019-05-17T02:08:12.263Z,63.20
2019-05-17T02:10:43.161Z,63.20
2019-05-17T02:13:16.285Z,63.20
2019-05-17T02:15:47.147Z,63.30
2019-05-17T02:18:18.770Z,63.30
2019-05-17T02:20:49.804Z,63.30
2019-05-17T02:23:21.138Z,63.40
2019-05-17T02:25:52.447Z,63.60
2019-05-17T02:28:23.287Z,63.70
2019-05-17T02:30:54.621Z,63.60
2019-05-17T02:33:26.299Z,63.60
2019-05-17T02:35:57.272Z,63.50
2019-05-17T02:38:28.463Z,63.50
2019-05-17T02:41:02.914Z,63.60
2019-05-17T02:43:33.580Z,63.80
2019-05-17T02:46:05.103Z,63.90
2019-05-17T02:48:35.851Z,64.00
2019-05-17T02:51:06.803Z,64.10
2019-05-17T02:53:38.051Z,64.30
2019-05-17T02:56:13.234Z,64.50
2019-05-17T02:58:43.862Z,64.70
2019-05-17T03:01:15.734Z,64.90
2019-05-17T03:03:46.760Z,65.10
2019-05-17T03:06:17.852Z,65.20
2019-05-17T03:08:52.224Z,65.40
2019-05-17T03:11:22.687Z,65.40
2019-05-17T03:13:54.064Z,65.40
2019-05-17T03:16:25.003Z,65.60
2019-05-17T03:18:57.420Z,65.60
2019-05-17T03:21:28.608Z,65.70
2019-05-17T03:24:02.880Z,65.70
2019-05-17T03:26:32.937Z,65.60
2019-05-17T03:29:04.112Z,65.60
2019-05-17T03:31:42.329Z,65.60
2019-05-17T03:34:08.171Z,65.60
2019-05-17T03:36:39.153Z,65.70
2019-05-17T03:39:12.816Z,65.60
2019-05-17T03:41:43.268Z,66.00
2019-05-17T03:44:14.660Z,66.00
2019-05-17T03:46:45.644Z,65.90
2019-05-17T03:49:16.994Z,66.00
2019-05-17T03:51:47.948Z,66.10
2019-05-17T03:54:22.429Z,66.10
2019-05-17T03:56:53.236Z,66.10
2019-05-17T03:59:25.576Z,66.10
2019-05-17T04:01:57.019Z,66.10
2019-05-17T04:04:28.164Z,66.40
2019-05-17T04:06:59.533Z,66.60
2019-05-17T04:09:32.871Z,66.70
2019-05-17T04:12:03.317Z,66.70
2019-05-17T04:14:34.091Z,66.80
2019-05-17T04:17:05.500Z,66.80
2019-05-17T04:19:36.520Z,66.90
2019-05-17T04:22:07.752Z,66.80
2019-05-17T04:24:38.962Z,66.70
2019-05-17T04:27:13.397Z,66.70
2019-05-17T04:29:42.907Z,66.90
2019-05-17T04:32:13.829Z,66.70
2019-05-17T04:34:45.152Z,66.60
2019-05-17T04:37:16.172Z,66.70
2019-05-17T04:39:47.141Z,66.60
2019-05-17T04:42:18.413Z,66.50
2019-05-17T04:44:52.420Z,66.50
2019-05-17T04:47:23.147Z,66.50
2019-05-17T04:49:54.392Z,66.00
2019-05-17T04:52:25.724Z,66.00
2019-05-17T04:54:56.968Z,66.10
2019-05-17T04:57:32.493Z,66.40
2019-05-17T05:00:04.217Z,66.50
2019-05-17T05:02:35.324Z,66.50
2019-05-17T05:05:06.635Z,66.80
2019-05-17T05:07:38.853Z,67.10
2019-05-17T05:10:13.095Z,66.70
2019-05-17T05:12:43.629Z,66.60
2019-05-17T05:15:15.643Z,66.50
2019-05-17T05:17:46.875Z,66.10
2019-05-17T05:20:17.972Z,65.40
2019-05-17T05:22:48.835Z,63.80
2019-05-17T05:25:21.659Z,63.60
2019-05-17T05:27:53.115Z,63.70
2019-05-17T05:30:24.595Z,63.50
2019-05-17T05:32:55.687Z,63.00
2019-05-17T05:35:26.698Z,62.50
2019-05-17T05:37:57.575Z,62.30
2019-05-17T05:40:28.763Z,61.30
2019-05-17T05:43:02.306Z,59.90
2019-05-17T05:45:33.354Z,59.30
2019-05-17T05:48:04.503Z,59.20
2019-05-17T05:50:35.491Z,58.60
2019-05-17T05:53:06.586Z,58.60
2019-05-17T05:55:37.875Z,58.40
2019-05-17T05:58:11.920Z,58.50
2019-05-17T06:00:43.100Z,58.00
2019-05-17T06:03:14.386Z,57.90
2019-05-17T06:05:45.738Z,57.70
2019-05-17T06:08:16.531Z,57.60
2019-05-17T06:10:47.285Z,57.90
2019-05-17T06:13:18.228Z,57.80
2019-05-17T06:15:51.621Z,57.30
2019-05-17T06:18:22.658Z,57.30
2019-05-17T06:20:54.942Z,57.00
2019-05-17T06:23:25.839Z,56.70
2019-05-17T06:25:56.887Z,56.40
2019-05-17T06:28:28.002Z,56.40
2019-05-17T06:30:58.762Z,56.30
2019-05-17T06:33:33.824Z,55.50
2019-05-17T06:36:02.828Z,55.60
2019-05-17T06:38:33.842Z,55.70
2019-05-17T06:41:04.959Z,54.70
2019-05-17T06:43:38.392Z,54.80
2019-05-17T06:46:08.602Z,53.40
2019-05-17T06:48:42.372Z,51.80
2019-05-17T06:51:13.627Z,51.50
2019-05-17T06:53:44.787Z,51.20
2019-05-17T06:56:16.594Z,51.10
2019-05-17T06:58:47.628Z,50.80
2019-05-17T07:01:19.721Z,50.80
2019-05-17T07:03:51.534Z,50.90
2019-05-17T07:06:24.779Z,51.10
2019-05-17T07:08:55.875Z,51.40
2019-05-17T07:11:27.267Z,51.50
2019-05-17T07:13:59.737Z,51.60
2019-05-17T07:16:31.128Z,51.80
2019-05-17T07:19:02.216Z,52.00
2019-05-17T07:21:33.420Z,52.20
2019-05-17T07:24:04.334Z,52.10
2019-05-17T07:26:35.383Z,52.30
2019-05-17T07:29:06.275Z,52.10
2019-05-17T07:31:37.647Z,52.10
2019-05-17T07:34:09.225Z,51.80
2019-05-17T07:36:40.407Z,51.60
2019-05-17T07:39:12.454Z,51.80
2019-05-17T07:41:43.531Z,51.90
2019-05-17T07:44:14.463Z,51.90
2019-05-17T07:46:45.692Z,51.70
2019-05-17T07:49:16.731Z,50.90
2019-05-17T07:51:50.175Z,50.60
2019-05-17T07:54:20.748Z,50.70
2019-05-17T07:56:52.747Z,50.50
2019-05-17T07:59:23.817Z,50.60
2019-05-17T08:01:54.903Z,50.70
2019-05-17T08:04:26.077Z,50.30
2019-05-17T08:06:59.688Z,50.70
2019-05-17T08:09:30.619Z,50.20
2019-05-17T08:12:01.631Z,50.10
2019-05-17T08:14:33.566Z,49.70
2019-05-17T08:17:04.818Z,49.40
2019-05-17T08:19:35.734Z,49.10
2019-05-17T08:22:09.631Z,48.70
2019-05-17T08:24:40.059Z,48.60
2019-05-17T08:27:11.235Z,48.20
2019-05-17T08:29:42.088Z,47.80
2019-05-17T08:32:13.224Z,47.60
2019-05-17T08:34:44.287Z,47.60
2019-05-17T08:37:15.388Z,47.60
2019-05-17T08:39:46.521Z,47.40
2019-05-17T08:42:20.326Z,46.90
2019-05-17T08:44:50.555Z,46.30
2019-05-17T08:47:21.871Z,46.80
2019-05-17T08:49:52.804Z,46.10
2019-05-17T08:52:23.764Z,45.70
2019-05-17T08:54:54.795Z,44.50
2019-05-17T08:57:25.761Z,44.90
2019-05-17T08:59:57.073Z,45.30
2019-05-17T09:02:29.904Z,45.00
2019-05-17T09:05:00.895Z,42.60
2019-05-17T09:07:31.931Z,41.50
2019-05-17T09:10:03.799Z,40.30
2019-05-17T09:12:34.806Z,40.60
2019-05-17T09:15:06.651Z,39.40
2019-05-17T09:17:39.760Z,39.40
2019-05-17T09:20:11.151Z,38.00
2019-05-17T09:22:42.483Z,36.40
2019-05-17T09:25:18.853Z,36.10
2019-05-17T09:27:46.891Z,35.60
2019-05-17T09:30:20.303Z,35.70
2019-05-17T09:32:51.931Z,36.20
2019-05-17T09:35:23.162Z,36.70
2019-05-17T09:37:54.095Z,36.60
2019-05-17T09:40:24.931Z,36.20
2019-05-17T09:42:56.010Z,36.40
2019-05-17T09:45:26.884Z,37.70
2019-05-17T09:48:00.528Z,38.40
2019-05-17T09:50:30.618Z,36.30
2019-05-17T09:53:01.828Z,35.20
2019-05-17T09:55:32.607Z,33.80
2019-05-17T09:58:03.724Z,34.30
2019-05-17T10:00:34.784Z,33.50
2019-05-17T10:03:05.976Z,33.10
2019-05-17T10:05:37.214Z,33.70
2019-05-17T10:08:10.596Z,33.70
2019-05-17T10:10:41.115Z,32.90
2019-05-17T10:13:12.422Z,32.60
2019-05-17T10:15:43.434Z,32.40
2019-05-17T10:18:14.486Z,32.90
2019-05-17T10:20:45.834Z,32.30
2019-05-17T10:23:19.519Z,32.10
2019-05-17T10:25:49.983Z,32.60
2019-05-17T10:28:20.955Z,32.60
2019-05-17T10:30:52.470Z,33.10
2019-05-17T10:33:23.917Z,32.70
2019-05-17T10:35:54.685Z,32.60
2019-05-17T10:38:25.778Z,32.00
2019-05-17T10:40:56.838Z,32.00
2019-05-17T10:43:29.739Z,32.20
2019-05-17T10:46:00.723Z,32.40
2019-05-17T10:48:33.155Z,32.40
2019-05-17T10:51:04.508Z,33.40
2019-05-17T10:53:35.494Z,34.00
2019-05-17T10:56:06.800Z,34.40
2019-05-17T10:58:39.887Z,34.70
2019-05-17T11:01:10.455Z,34.80
2019-05-17T11:03:42.067Z,34.50
2019-05-17T11:06:13.264Z,34.30
2019-05-17T11:08:44.303Z,34.20
2019-05-17T11:11:15.518Z,34.20
2019-05-17T11:13:46.495Z,34.80
2019-05-17T11:16:18.006Z,34.30
2019-05-17T11:18:48.904Z,33.70
2019-05-17T11:21:20.283Z,33.60
2019-05-17T11:23:51.859Z,33.80
2019-05-17T11:26:23.255Z,34.30
2019-05-17T11:28:55.624Z,32.70
2019-05-17T11:31:26.586Z,32.10
2019-05-17T11:33:57.642Z,32.20
2019-05-17T11:36:28.803Z,31.90
2019-05-17T11:38:59.942Z,31.30
2019-05-17T11:41:31.127Z,30.70
2019-05-17T11:44:02.210Z,30.30
2019-05-17T11:46:36.355Z,30.00
2019-05-17T11:49:05.907Z,30.20
2019-05-17T11:51:37.011Z,30.40
2019-05-17T11:54:08.137Z,31.70
2019-05-17T11:56:38.910Z,31.90
2019-05-17T11:59:10.490Z,31.90
2019-05-17T12:01:41.676Z,32.10
2019-05-17T12:04:12.931Z,33.20
2019-05-17T12:06:44.047Z,33.40
2019-05-17T12:09:15.147Z,33.10
2019-05-17T12:11:46.381Z,32.40
2019-05-17T12:14:17.355Z,32.20
2019-05-17T12:16:48.506Z,31.60
2019-05-17T12:19:19.867Z,30.60
2019-05-17T12:21:50.787Z,30.40
2019-05-17T12:24:21.850Z,31.00
2019-05-17T12:26:52.671Z,30.10
2019-05-17T12:29:23.631Z,29.70
2019-05-17T12:31:55.113Z,29.90
2019-05-17T12:34:26.319Z,30.00
2019-05-17T12:36:57.424Z,29.70
2019-05-17T12:39:28.491Z,29.70
2019-05-17T12:41:59.582Z,29.80
2019-05-17T12:44:31.311Z,29.70
2019-05-17T12:47:02.331Z,30.40
2019-05-17T12:49:33.503Z,30.40
2019-05-17T12:52:04.615Z,30.10
2019-05-17T12:54:36.643Z,30.50
2019-05-17T12:57:08.087Z,30.60
2019-05-17T12:59:40.279Z,31.20
2019-05-17T13:02:12.723Z,30.30
2019-05-17T13:04:44.336Z,30.70
2019-05-17T13:07:15.740Z,30.60
2019-05-17T13:09:46.827Z,30.00
2019-05-17T13:12:18.191Z,30.00
2019-05-17T13:14:49.332Z,30.10
2019-05-17T13:17:20.607Z,30.50
2019-05-17T13:19:51.963Z,31.90
2019-05-17T13:22:23.272Z,32.30
2019-05-17T13:24:54.303Z,32.60
2019-05-17T13:27:25.929Z,32.80
2019-05-17T13:29:57.177Z,33.00
2019-05-17T13:32:27.983Z,32.90
2019-05-17T13:34:58.856Z,33.10
2019-05-17T13:37:29.962Z,32.60
2019-05-17T13:40:01.136Z,32.30
2019-05-17T13:42:33.495Z,31.90
2019-05-17T13:45:05.166Z,32.00
2019-05-17T13:47:36.756Z,32.60
2019-05-17T13:50:08.369Z,32.70
2019-05-17T13:52:39.656Z,32.60
2019-05-17T13:55:10.998Z,32.20
2019-05-17T13:57:43.251Z,32.40
2019-05-17T14:00:16.111Z,32.60
2019-05-17T14:02:47.819Z,32.80
2019-05-17T14:05:18.739Z,32.80
2019-05-17T14:07:50.011Z,33.20
2019-05-17T14:10:27.664Z,33.70
2019-05-17T14:12:54.435Z,34.20
2019-05-17T14:15:25.558Z,34.10
2019-05-17T14:17:57.688Z,34.30
2019-05-17T14:20:29.153Z,34.40
2019-05-17T14:23:00.690Z,35.00
2019-05-17T14:25:32.050Z,35.40
2019-05-17T14:28:03.319Z,35.80
2019-05-17T14:30:34.939Z,36.20
2019-05-17T14:33:06.115Z,36.80
2019-05-17T14:35:37.260Z,37.20
2019-05-17T14:38:08.627Z,37.70
2019-05-17T14:41:04.991Z,38.10
2019-05-17T14:43:12.683Z,38.70
2019-05-17T14:45:45.259Z,38.50
2019-05-17T14:48:16.635Z,39.10
2019-05-17T14:50:48.082Z,39.10
2019-05-17T14:53:19.676Z,39.00
2019-05-17T14:55:51.079Z,39.10
2019-05-17T14:58:22.406Z,40.00
2019-05-17T15:00:54.438Z,39.90
2019-05-17T15:03:26.231Z,40.60
2019-05-17T15:05:57.844Z,40.60
2019-05-17T15:08:29.253Z,40.90
2019-05-17T15:11:00.945Z,41.20
2019-05-17T15:13:32.113Z,41.30
2019-05-17T15:16:03.491Z,41.70
2019-05-17T15:18:34.599Z,41.30
2019-05-17T15:21:05.981Z,41.40
2019-05-17T15:23:37.726Z,41.50
2019-05-17T15:26:08.867Z,41.70
2019-05-17T15:28:40.181Z,42.20
2019-05-17T15:31:12.268Z,42.50
2019-05-17T15:33:43.422Z,42.70
2019-05-17T15:36:15.715Z,42.90
2019-05-17T15:38:46.751Z,42.90
2019-05-17T15:41:18.036Z,43.20
2019-05-17T15:43:49.456Z,43.10
2019-05-17T15:46:20.869Z,43.50
2019-05-17T15:48:52.371Z,43.60
2019-05-17T15:51:26.842Z,43.80
2019-05-17T15:53:57.631Z,43.90
2019-05-17T15:56:28.743Z,43.70
2019-05-17T15:59:00.288Z,43.50
2019-05-17T16:01:30.999Z,43.70
2019-05-17T16:04:01.726Z,43.40
2019-05-17T16:06:32.871Z,43.50
2019-05-17T16:09:07.003Z,44.00
2019-05-17T16:11:38.207Z,44.40
2019-05-17T16:14:10.236Z,44.40
2019-05-17T16:16:41.690Z,44.70
2019-05-17T16:19:12.927Z,44.80
2019-05-17T16:21:44.454Z,45.30
2019-05-17T16:24:15.805Z,45.00
2019-05-17T16:26:46.938Z,45.20
2019-05-17T16:29:17.907Z,45.20
2019-05-17T16:31:49.543Z,45.00
2019-05-17T16:34:20.827Z,45.40
2019-05-17T16:36:52.409Z,45.30
2019-05-17T16:39:24.376Z,45.40
2019-05-17T16:41:56.067Z,45.50
2019-05-17T16:44:27.736Z,45.70
2019-05-17T16:46:59.115Z,46.00
2019-05-17T16:49:30.283Z,46.20
2019-05-17T16:52:01.511Z,46.30
2019-05-17T16:54:32.814Z,46.20
2019-05-17T16:57:04.438Z,46.30
2019-05-17T16:59:35.791Z,46.60
2019-05-17T17:02:07.598Z,46.90
2019-05-17T17:04:38.703Z,47.00
2019-05-17T17:07:10.388Z,46.90
2019-05-17T17:09:42.215Z,46.90
2019-05-17T17:12:15.098Z,46.80
2019-05-17T17:14:46.779Z,46.90
2019-05-17T17:17:18.367Z,46.90
2019-05-17T17:19:49.363Z,47.00
2019-05-17T17:22:20.379Z,47.00
2019-05-17T17:24:51.443Z,47.30
2019-05-17T17:27:22.794Z,47.90
2019-05-17T17:29:54.042Z,47.40
2019-05-17T17:32:25.243Z,47.70
2019-05-17T17:34:56.632Z,47.70
2019-05-17T17:37:27.703Z,47.90
2019-05-17T17:39:58.895Z,47.90
2019-05-17T17:42:30.227Z,48.20
2019-05-17T17:45:01.346Z,48.70
2019-05-17T17:47:32.347Z,48.80
2019-05-17T17:50:03.356Z,48.90
2019-05-17T17:52:35.000Z,49.00
2019-05-17T17:55:06.850Z,49.10
2019-05-17T17:57:41.002Z,49.20
2019-05-17T18:00:11.671Z,49.20
2019-05-17T18:02:43.003Z,49.50
2019-05-17T18:05:14.573Z,49.50
2019-05-17T18:07:45.907Z,49.80
2019-05-17T18:10:27.387Z,49.90
2019-05-17T18:12:59.126Z,49.90
2019-05-17T18:15:43.311Z,50.10
2019-05-17T18:18:16.351Z,50.20
2019-05-17T18:20:47.315Z,50.40
2019-05-17T18:23:22.502Z,50.50
2019-05-17T18:25:51.379Z,51.30
2019-05-17T18:28:22.816Z,50.90
2019-05-17T18:30:53.955Z,51.60
2019-05-17T18:33:24.831Z,51.10
2019-05-17T18:35:57.611Z,51.20
2019-05-17T18:38:31.448Z,51.50
2019-05-17T18:41:02.792Z,51.80
2019-05-17T18:43:34.370Z,51.90
2019-05-17T18:46:06.279Z,52.10
2019-05-17T18:48:37.975Z,52.10
2019-05-17T18:51:09.142Z,52.20
2019-05-17T18:53:40.595Z,52.50
2019-05-17T18:56:11.819Z,52.30
2019-05-17T18:58:43.151Z,52.80
2019-05-17T19:01:14.663Z,52.70
2019-05-17T19:03:46.709Z,53.00
2019-05-17T19:06:18.247Z,53.00
2019-05-17T19:08:50.347Z,53.20
2019-05-17T19:11:21.390Z,53.20
2019-05-17T19:13:52.459Z,53.20
2019-05-17T19:16:23.834Z,53.40
2019-05-17T19:18:55.247Z,53.40
2019-05-17T19:21:26.587Z,53.40
2019-05-17T19:23:57.795Z,53.50
2019-05-17T19:26:29.111Z,53.50
2019-05-17T19:29:00.391Z,53.60
2019-05-17T19:31:31.975Z,53.60
2019-05-17T19:34:03.247Z,53.50
2019-05-17T19:36:34.236Z,53.60
2019-05-17T19:39:06.622Z,53.60
2019-05-17T19:41:38.055Z,53.50
2019-05-17T19:44:08.967Z,53.90
2019-05-17T19:46:40.463Z,53.50
2019-05-17T19:49:12.166Z,53.80
2019-05-17T19:51:43.598Z,53.70
2019-05-17T19:54:14.691Z,53.80
2019-05-17T19:56:46.199Z,53.70
2019-05-17T19:59:17.479Z,53.80
2019-05-17T20:01:48.800Z,53.80
2019-05-17T20:04:20.360Z,54.00
2019-05-17T20:06:51.371Z,54.10
2019-05-17T20:09:22.623Z,54.20
2019-05-17T20:11:54.895Z,54.40
2019-05-17T20:14:26.262Z,54.40
2019-05-17T20:16:57.655Z,54.60
2019-05-17T20:19:28.462Z,54.60
2019-05-17T20:21:59.749Z,54.60
2019-05-17T20:24:30.947Z,54.70
2019-05-17T20:27:02.391Z,54.80
2019-05-17T20:29:34.724Z,54.70
2019-05-17T20:32:05.890Z,54.70
2019-05-17T20:34:37.043Z,54.70
2019-05-17T20:37:08.163Z,54.80
2019-05-17T20:39:39.303Z,55.00
2019-05-17T20:42:10.802Z,55.20
2019-05-17T20:44:41.767Z,55.20
2019-05-17T20:47:12.767Z,55.20
2019-05-17T20:49:43.829Z,55.40
2019-05-17T20:52:14.676Z,55.50
2019-05-17T20:54:47.439Z,55.90
2019-05-17T20:57:18.711Z,55.90
2019-05-17T20:59:50.543Z,55.90
2019-05-17T21:02:22.448Z,55.90
2019-05-17T21:04:53.534Z,55.90
2019-05-17T21:07:24.763Z,55.90
2019-05-17T21:09:56.208Z,56.00
2019-05-17T21:12:27.919Z,56.10
2019-05-17T21:14:58.979Z,56.30
2019-05-17T21:17:30.408Z,56.50
2019-05-17T21:20:01.279Z,56.60
2019-05-17T21:22:32.791Z,56.80
2019-05-17T21:25:04.123Z,56.70
2019-05-17T21:27:35.379Z,56.90
2019-05-17T21:30:08.020Z,57.10
2019-05-17T21:32:39.082Z,57.20
2019-05-17T21:35:10.635Z,57.40
2019-05-17T21:37:41.799Z,57.40
2019-05-17T21:40:14.220Z,57.50
2019-05-17T21:42:45.483Z,57.50
2019-05-17T21:45:17.031Z,58.20
2019-05-17T21:47:48.392Z,57.80
2019-05-17T21:50:20.299Z,57.70
2019-05-17T21:52:51.556Z,58.10
2019-05-17T21:55:22.848Z,57.60
2019-05-17T21:57:54.058Z,57.60
2019-05-17T22:01:02.361Z,57.70
2019-05-17T22:03:33.857Z,57.70
2019-05-17T22:06:04.960Z,57.60
2019-05-17T22:08:38.729Z,57.50
2019-05-17T22:11:10.025Z,57.50
2019-05-17T22:13:41.227Z,57.50
2019-05-17T22:16:19.496Z,57.60
2019-05-17T22:18:44.875Z,57.90
2019-05-17T22:21:17.286Z,58.10
2019-05-17T22:23:48.371Z,58.30
2019-05-17T22:26:19.171Z,58.30
2019-05-17T22:28:51.030Z,58.30
2019-05-17T22:31:22.043Z,58.40
2019-05-17T22:33:52.947Z,58.40
2019-05-17T22:36:24.100Z,58.10
2019-05-17T22:38:55.045Z,57.80
2019-05-17T22:41:26.260Z,57.70
2019-05-17T22:43:57.451Z,57.60
2019-05-17T22:46:36.247Z,57.60
2019-05-17T22:49:01.384Z,57.50
2019-05-17T22:51:32.670Z,57.50
2019-05-17T22:54:04.076Z,57.50
2019-05-17T22:56:35.252Z,58.40
2019-05-17T22:59:06.295Z,58.40
2019-05-17T23:01:37.366Z,58.60
2019-05-17T23:04:08.728Z,58.90
2019-05-17T23:06:39.932Z,58.80
2019-05-17T23:09:11.027Z,58.70
2019-05-17T23:11:42.755Z,58.70
2019-05-17T23:14:13.784Z,58.70
2019-05-17T23:16:51.595Z,58.80
2019-05-17T23:19:18.082Z,58.80
2019-05-17T23:21:49.322Z,59.20
2019-05-17T23:24:21.808Z,59.20
2019-05-17T23:26:52.878Z,59.30
2019-05-17T23:29:24.363Z,59.20
2019-05-17T23:31:55.515Z,59.20
2019-05-17T23:34:26.799Z,59.10
2019-05-17T23:36:57.786Z,59.20
2019-05-17T23:39:28.815Z,59.10
2019-05-17T23:41:59.743Z,59.10
2019-05-17T23:44:31.091Z,59.10
2019-05-17T23:47:06.988Z,59.10
2019-05-17T23:49:36.651Z,59.40
2019-05-17T23:52:07.744Z,59.50
2019-05-17T23:54:39.074Z,59.60
2019-05-17T23:57:10.064Z,59.50
2019-05-17T23:59:41.799Z,59.50
